sensor_id;sensor_type;location;lat;lon;timestamp;pressure;altitude;pressure_sealevel;temperature;humidity
12594;BME280;6362;50.208;9.182;2022-10-26T00:00:44;99854.91;;;10.06;100.00
12594;BME280;6362;50.208;9.182;2022-10-26T00:03:09;99865.94;;;10.06;100.00
12594;BME280;6362;50.208;9.182;2022-10-26T00:05:35;99858.31;;;10.05;100.00
12594;BME280;6362;50.208;9.182;2022-10-26T00:08:01;99856.63;;;10.08;100.00
12594;BME280;6362;50.208;9.182;2022-10-26T00:10:27;99855.78;;;10.08;100.00
12594;BME280;6362;50.208;9.182;2022-10-26T00:12:52;99852.41;;;10.10;100.00
12594;BME280;6362;50.208;9.182;2022-10-26T00:15:18;99844.00;;;10.16;100.00
12594;BME280;6362;50.208;9.182;2022-10-26T00:17:44;99844.09;;;10.25;100.00
12594;BME280;6362;50.208;9.182;2022-10-26T00:20:10;99848.47;;;10.35;100.00
12594;BME280;6362;50.208;9.182;2022-10-26T00:22:36;99846.91;;;10.45;100.00
12594;BME280;6362;50.208;9.182;2022-10-26T00:25:02;99843.56;;;10.52;100.00
12594;BME280;6362;50.208;9.182;2022-10-26T00:27:28;99852.09;;;10.56;100.00
12594;BME280;6362;50.208;9.182;2022-10-26T00:29:54;99852.97;;;10.58;100.00
12594;BME280;6362;50.208;9.182;2022-10-26T00:32:20;99853.84;;;10.58;100.00
12594;BME280;6362;50.208;9.182;2022-10-26T00:34:45;99850.41;;;10.58;100.00
12594;BME280;6362;50.208;9.182;2022-10-26T00:37:10;99849.56;;;10.54;100.00
12594;BME280;6362;50.208;9.182;2022-10-26T00:39:36;99843.56;;;10.51;100.00
12594;BME280;6362;50.208;9.182;2022-10-26T00:42:01;99850.34;;;10.50;100.00
12594;BME280;6362;50.208;9.182;2022-10-26T00:47:14;99840.22;;;10.56;100.00
12594;BME280;6362;50.208;9.182;2022-10-26T00:49:44;99843.66;;;10.58;100.00
12594;BME280;6362;50.208;9.182;2022-10-26T00:52:12;99844.53;;;10.60;100.00
12594;BME280;6362;50.208;9.182;2022-10-26T00:54:38;99841.97;;;10.62;100.00
12594;BME280;6362;50.208;9.182;2022-10-26T00:57:05;99848.03;;;10.73;100.00
12594;BME280;6362;50.208;9.182;2022-10-26T00:59:31;99844.72;;;10.83;100.00
12594;BME280;6362;50.208;9.182;2022-10-26T01:01:57;99843.09;;;10.92;100.00
12594;BME280;6362;50.208;9.182;2022-10-26T01:04:22;99843.13;;;10.96;100.00
12594;BME280;6362;50.208;9.182;2022-10-26T01:06:48;99847.50;;;11.08;100.00
12594;BME280;6362;50.208;9.182;2022-10-26T01:09:14;99842.41;;;11.11;100.00
12594;BME280;6362;50.208;9.182;2022-10-26T01:11:40;99839.03;;;11.15;100.00
12594;BME280;6362;50.208;9.182;2022-10-26T01:14:08;99844.13;;;11.14;100.00
12594;BME280;6362;50.208;9.182;2022-10-26T01:22:14;99842.47;;;11.20;100.00
12594;BME280;6362;50.208;9.182;2022-10-26T01:38:31;99834.63;;;10.97;100.00
12594;BME280;6362;50.208;9.182;2022-10-26T01:41:09;99832.06;;;10.94;100.00
12594;BME280;6362;50.208;9.182;2022-10-26T01:43:41;99837.13;;;10.91;100.00
12594;BME280;6362;50.208;9.182;2022-10-26T01:46:08;99838.00;;;10.90;100.00
12594;BME280;6362;50.208;9.182;2022-10-26T01:48:36;99834.56;;;10.90;100.00
12594;BME280;6362;50.208;9.182;2022-10-26T01:51:03;99832.88;;;10.90;100.00
12594;BME280;6362;50.208;9.182;2022-10-26T01:53:30;99826.06;;;10.88;100.00
12594;BME280;6362;50.208;9.182;2022-10-26T01:55:56;99826.06;;;10.88;100.00
12594;BME280;6362;50.208;9.182;2022-10-26T02:06:30;99808.38;;;11.11;100.00
12594;BME280;6362;50.208;9.182;2022-10-26T02:11:39;99805.88;;;11.23;100.00
12594;BME280;6362;50.208;9.182;2022-10-26T02:19:37;99801.75;;;11.43;100.00
12594;BME280;6362;50.208;9.182;2022-10-26T02:22:28;99796.66;;;11.43;100.00
12594;BME280;6362;50.208;9.182;2022-10-26T02:24:58;99796.66;;;11.45;100.00
12594;BME280;6362;50.208;9.182;2022-10-26T02:27:29;99802.63;;;11.47;100.00
12594;BME280;6362;50.208;9.182;2022-10-26T02:29:55;99806.06;;;11.49;100.00
12594;BME280;6362;50.208;9.182;2022-10-26T02:32:26;99795.84;;;11.46;100.00
12594;BME280;6362;50.208;9.182;2022-10-26T02:34:54;99798.38;;;11.48;100.00
12594;BME280;6362;50.208;9.182;2022-10-26T02:37:21;99799.25;;;11.51;100.00
12594;BME280;6362;50.208;9.182;2022-10-26T02:39:49;99795.84;;;11.49;100.00
12594;BME280;6362;50.208;9.182;2022-10-26T02:42:17;99798.38;;;11.48;100.00
12594;BME280;6362;50.208;9.182;2022-10-26T02:44:55;99789.03;;;11.50;100.00
12594;BME280;6362;50.208;9.182;2022-10-26T02:47:23;99797.56;;;11.55;100.00
12594;BME280;6362;50.208;9.182;2022-10-26T02:49:51;99789.91;;;11.52;100.00
12594;BME280;6362;50.208;9.182;2022-10-26T02:52:23;99800.09;;;11.50;100.00
12594;BME280;6362;50.208;9.182;2022-10-26T02:55:03;99785.66;;;11.51;100.00
12594;BME280;6362;50.208;9.182;2022-10-26T02:57:38;99786.50;;;11.51;100.00
12594;BME280;6362;50.208;9.182;2022-10-26T03:00:10;99783.91;;;11.50;100.00
12594;BME280;6362;50.208;9.182;2022-10-26T03:02:36;99781.38;;;11.51;100.00
12594;BME280;6362;50.208;9.182;2022-10-26T03:05:29;99783.09;;;11.54;100.00
12594;BME280;6362;50.208;9.182;2022-10-26T03:07:57;99783.13;;;11.55;100.00
12594;BME280;6362;50.208;9.182;2022-10-26T03:10:23;99785.59;;;11.48;100.00
12594;BME280;6362;50.208;9.182;2022-10-26T03:12:48;99780.47;;;11.41;100.00
12594;BME280;6362;50.208;9.182;2022-10-26T03:15:14;99780.47;;;11.40;100.00
12594;BME280;6362;50.208;9.182;2022-10-26T03:17:40;99782.19;;;11.39;100.00
12594;BME280;6362;50.208;9.182;2022-10-26T03:20:06;99778.72;;;11.34;100.00
12594;BME280;6362;50.208;9.182;2022-10-26T03:22:32;99780.50;;;11.44;100.00
12594;BME280;6362;50.208;9.182;2022-10-26T03:24:57;99778.78;;;11.45;100.00
12594;BME280;6362;50.208;9.182;2022-10-26T03:27:23;99778.78;;;11.45;100.00
12594;BME280;6362;50.208;9.182;2022-10-26T03:29:48;99770.28;;;11.48;100.00
12594;BME280;6362;50.208;9.182;2022-10-26T03:32:13;99769.47;;;11.52;100.00
12594;BME280;6362;50.208;9.182;2022-10-26T03:34:39;99774.59;;;11.58;100.00
12594;BME280;6362;50.208;9.182;2022-10-26T03:37:04;99771.22;;;11.62;100.00
12594;BME280;6362;50.208;9.182;2022-10-26T03:39:30;99768.66;;;11.62;100.00
12594;BME280;6362;50.208;9.182;2022-10-26T03:41:55;99775.47;;;11.60;100.00
12594;BME280;6362;50.208;9.182;2022-10-26T03:44:21;99778.00;;;11.57;100.00
12594;BME280;6362;50.208;9.182;2022-10-26T03:46:47;99777.97;;;11.54;100.00
12594;BME280;6362;50.208;9.182;2022-10-26T03:49:12;99777.94;;;11.48;100.00
12594;BME280;6362;50.208;9.182;2022-10-26T03:51:38;99781.31;;;11.43;100.00
12594;BME280;6362;50.208;9.182;2022-10-26T03:54:03;99784.72;;;11.41;100.00
12594;BME280;6362;50.208;9.182;2022-10-26T03:56:29;99783.03;;;11.43;100.00
12594;BME280;6362;50.208;9.182;2022-10-26T03:58:54;99778.78;;;11.43;100.00
12594;BME280;6362;50.208;9.182;2022-10-26T04:01:20;99783.91;;;11.48;100.00
12594;BME280;6362;50.208;9.182;2022-10-26T04:03:45;99785.63;;;11.52;100.00
12594;BME280;6362;50.208;9.182;2022-10-26T04:06:11;99785.63;;;11.52;100.00
12594;BME280;6362;50.208;9.182;2022-10-26T04:08:36;99783.13;;;11.58;100.00
12594;BME280;6362;50.208;9.182;2022-10-26T04:11:02;99789.88;;;11.49;100.00
12594;BME280;6362;50.208;9.182;2022-10-26T04:13:27;99789.81;;;11.41;100.00
12594;BME280;6362;50.208;9.182;2022-10-26T04:15:52;99790.63;;;11.34;100.00
12594;BME280;6362;50.208;9.182;2022-10-26T04:18:18;99800.81;;;11.29;100.00
12594;BME280;6362;50.208;9.182;2022-10-26T04:20:43;99803.38;;;11.32;100.00
12594;BME280;6362;50.208;9.182;2022-10-26T04:23:14;99802.53;;;11.32;100.00
12594;BME280;6362;50.208;9.182;2022-10-26T04:25:40;99799.91;;;11.18;100.00
12594;BME280;6362;50.208;9.182;2022-10-26T04:28:07;99800.72;;;11.11;100.00
12594;BME280;6362;50.208;9.182;2022-10-26T04:30:34;99801.53;;;11.10;100.00
12594;BME280;6362;50.208;9.182;2022-10-26T04:33:00;99796.50;;;11.17;100.00
12594;BME280;6362;50.208;9.182;2022-10-26T04:35:26;99794.72;;;11.06;100.00
12594;BME280;6362;50.208;9.182;2022-10-26T04:37:59;99792.94;;;10.98;100.00
12594;BME280;6362;50.208;9.182;2022-10-26T04:40:29;99798.03;;;10.92;100.00
12594;BME280;6362;50.208;9.182;2022-10-26T04:42:55;99786.97;;;10.93;100.00
12594;BME280;6362;50.208;9.182;2022-10-26T04:45:21;99781.03;;;10.96;100.00
12594;BME280;6362;50.208;9.182;2022-10-26T04:47:46;99772.59;;;11.08;100.00
12594;BME280;6362;50.208;9.182;2022-10-26T04:50:12;99781.16;;;11.14;100.00
12594;BME280;6362;50.208;9.182;2022-10-26T04:52:39;99774.41;;;11.19;100.00
12594;BME280;6362;50.208;9.182;2022-10-26T04:55:05;99772.72;;;11.24;100.00
12594;BME280;6362;50.208;9.182;2022-10-26T04:57:32;99777.88;;;11.31;100.00
12594;BME280;6362;50.208;9.182;2022-10-26T04:59:58;99774.53;;;11.42;100.00
12594;BME280;6362;50.208;9.182;2022-10-26T05:02:24;99769.41;;;11.39;100.00
12594;BME280;6362;50.208;9.182;2022-10-26T05:04:49;99766.03;;;11.48;100.00
12594;BME280;6362;50.208;9.182;2022-10-26T05:07:15;99777.97;;;11.49;100.00
12594;BME280;6362;50.208;9.182;2022-10-26T05:09:40;99780.50;;;11.46;100.00
12594;BME280;6362;50.208;9.182;2022-10-26T05:12:06;99788.97;;;11.40;100.00
12594;BME280;6362;50.208;9.182;2022-10-26T05:14:31;99788.97;;;11.39;100.00
12594;BME280;6362;50.208;9.182;2022-10-26T05:16:57;99780.47;;;11.40;100.00
12594;BME280;6362;50.208;9.182;2022-10-26T05:19:22;99787.25;;;11.38;100.00
12594;BME280;6362;50.208;9.182;2022-10-26T05:21:47;99777.06;;;11.39;100.00
12594;BME280;6362;50.208;9.182;2022-10-26T05:26:47;99778.75;;;11.39;100.00
12594;BME280;6362;50.208;9.182;2022-10-26T05:29:13;99781.31;;;11.39;100.00
12594;BME280;6362;50.208;9.182;2022-10-26T05:31:38;99782.19;;;11.39;100.00
12594;BME280;6362;50.208;9.182;2022-10-26T05:34:04;99783.81;;;11.34;100.00
12594;BME280;6362;50.208;9.182;2022-10-26T05:36:29;99791.50;;;11.36;100.00
12594;BME280;6362;50.208;9.182;2022-10-26T05:38:58;99780.44;;;11.34;100.00
12594;BME280;6362;50.208;9.182;2022-10-26T05:41:24;99786.41;;;11.33;100.00
12594;BME280;6362;50.208;9.182;2022-10-26T05:43:49;99777.00;;;11.29;100.00
12594;BME280;6362;50.208;9.182;2022-10-26T05:46:15;99781.22;;;11.25;100.00
12594;BME280;6362;50.208;9.182;2022-10-26T05:48:40;99781.22;;;11.22;100.00
12594;BME280;6362;50.208;9.182;2022-10-26T05:51:05;99765.91;;;11.27;100.00
12594;BME280;6362;50.208;9.182;2022-10-26T05:53:31;99771.00;;;11.25;100.00
12594;BME280;6362;50.208;9.182;2022-10-26T05:55:57;99762.47;;;11.23;100.00
12594;BME280;6362;50.208;9.182;2022-10-26T05:58:23;99761.66;;;11.24;100.00
12594;BME280;6362;50.208;9.182;2022-10-26T06:00:57;99771.03;;;11.28;100.00
12594;BME280;6362;50.208;9.182;2022-10-26T06:06:43;99781.19;;;11.20;100.00
12594;BME280;6362;50.208;9.182;2022-10-26T06:09:13;99784.66;;;11.29;100.00
12594;BME280;6362;50.208;9.182;2022-10-26T06:11:39;99781.25;;;11.31;100.00
12594;BME280;6362;50.208;9.182;2022-10-26T06:14:05;99794.91;;;11.36;100.00
12594;BME280;6362;50.208;9.182;2022-10-26T06:27:55;99823.91;;;11.44;100.00
12594;BME280;6362;50.208;9.182;2022-10-26T06:30:25;99821.41;;;11.51;100.00
12594;BME280;6362;50.208;9.182;2022-10-26T06:32:51;99825.69;;;11.58;100.00
12594;BME280;6362;50.208;9.182;2022-10-26T06:37:48;99827.44;;;11.66;100.00
12594;BME280;6362;50.208;9.182;2022-10-26T06:40:15;99829.13;;;11.64;100.00
12594;BME280;6362;50.208;9.182;2022-10-26T06:42:41;99825.72;;;11.64;100.00
12594;BME280;6362;50.208;9.182;2022-10-26T06:45:11;99828.28;;;11.65;100.00
12594;BME280;6362;50.208;9.182;2022-10-26T06:50:24;99824.91;;;11.70;100.00
12594;BME280;6362;50.208;9.182;2022-10-26T06:55:20;99816.44;;;11.80;100.00
12594;BME280;6362;50.208;9.182;2022-10-26T06:57:47;99823.28;;;11.85;100.00
12594;BME280;6362;50.208;9.182;2022-10-26T07:00:19;99837.84;;;11.94;100.00
12594;BME280;6362;50.208;9.182;2022-10-26T07:02:45;99843.81;;;11.96;100.00
12594;BME280;6362;50.208;9.182;2022-10-26T07:05:12;99848.94;;;12.04;100.00
12594;BME280;6362;50.208;9.182;2022-10-26T07:07:42;99854.09;;;12.07;100.00
12594;BME280;6362;50.208;9.182;2022-10-26T07:10:09;99861.78;;;12.16;100.00
12594;BME280;6362;50.208;9.182;2022-10-26T07:12:36;99868.63;;;12.19;100.00
12594;BME280;6362;50.208;9.182;2022-10-26T07:15:01;99872.03;;;12.22;100.00
12594;BME280;6362;50.208;9.182;2022-10-26T07:17:27;99877.16;;;12.21;100.00
12594;BME280;6362;50.208;9.182;2022-10-26T07:19:55;99884.00;;;12.36;100.00
12594;BME280;6362;50.208;9.182;2022-10-26T07:22:20;99890.09;;;12.78;100.00
12594;BME280;6362;50.208;9.182;2022-10-26T07:24:46;99899.47;;;12.74;100.00
12594;BME280;6362;50.208;9.182;2022-10-26T07:27:15;99908.84;;;12.78;100.00
12594;BME280;6362;50.208;9.182;2022-10-26T07:29:40;99910.59;;;12.88;100.00
12594;BME280;6362;50.208;9.182;2022-10-26T07:32:06;99911.47;;;13.03;100.00
12594;BME280;6362;50.208;9.182;2022-10-26T07:34:31;99908.91;;;13.09;100.00
12594;BME280;6362;50.208;9.182;2022-10-26T07:36:58;99908.94;;;13.30;100.00
12594;BME280;6362;50.208;9.182;2022-10-26T07:39:24;99923.47;;;13.33;100.00
12594;BME280;6362;50.208;9.182;2022-10-26T07:41:49;99923.47;;;13.45;100.00
12594;BME280;6362;50.208;9.182;2022-10-26T07:44:15;99926.88;;;13.33;100.00
12594;BME280;6362;50.208;9.182;2022-10-26T07:46:40;99914.06;;;13.37;100.00
12594;BME280;6362;50.208;9.182;2022-10-26T07:49:05;99922.59;;;13.37;100.00
12594;BME280;6362;50.208;9.182;2022-10-26T07:51:31;99920.06;;;13.39;100.00
12594;BME280;6362;50.208;9.182;2022-10-26T07:53:56;99926.00;;;13.44;100.00
12594;BME280;6362;50.208;9.182;2022-10-26T07:56:22;99922.63;;;13.56;100.00
12594;BME280;6362;50.208;9.182;2022-10-26T07:58:47;99906.38;;;13.58;100.00
12594;BME280;6362;50.208;9.182;2022-10-26T08:01:14;99915.78;;;13.67;100.00
12594;BME280;6362;50.208;9.182;2022-10-26T08:03:40;99908.91;;;13.70;100.00
12594;BME280;6362;50.208;9.182;2022-10-26T08:06:06;99914.03;;;13.72;100.00
12594;BME280;6362;50.208;9.182;2022-10-26T08:08:33;99923.44;;;13.74;100.00
12594;BME280;6362;50.208;9.182;2022-10-26T08:10:59;99929.44;;;13.73;100.00
12594;BME280;6362;50.208;9.182;2022-10-26T08:13:25;99931.13;;;13.74;100.00
12594;BME280;6362;50.208;9.182;2022-10-26T08:16:02;99932.81;;;13.75;100.00
12594;BME280;6362;50.208;9.182;2022-10-26T08:18:28;99943.09;;;13.79;100.00
12594;BME280;6362;50.208;9.182;2022-10-26T08:20:54;99943.94;;;13.81;100.00
12594;BME280;6362;50.208;9.182;2022-10-26T08:23:20;99937.09;;;13.77;100.00
12594;BME280;6362;50.208;9.182;2022-10-26T08:25:46;99942.22;;;13.84;100.00
12594;BME280;6362;50.208;9.182;2022-10-26T08:28:12;99947.31;;;13.98;100.00
12594;BME280;6362;50.208;9.182;2022-10-26T08:30:37;99947.31;;;13.95;100.00
12594;BME280;6362;50.208;9.182;2022-10-26T08:33:05;99942.19;;;14.00;100.00
12594;BME280;6362;50.208;9.182;2022-10-26T08:35:32;99942.19;;;14.06;100.00
12594;BME280;6362;50.208;9.182;2022-10-26T08:37:58;99931.88;;;14.15;100.00
12594;BME280;6362;50.208;9.182;2022-10-26T08:40:26;99937.00;;;14.26;100.00
12594;BME280;6362;50.208;9.182;2022-10-26T08:43:10;99940.38;;;14.35;100.00
12594;BME280;6362;50.208;9.182;2022-10-26T08:45:41;99938.59;;;14.47;100.00
12594;BME280;6362;50.208;9.182;2022-10-26T08:48:15;99944.59;;;14.55;100.00
12594;BME280;6362;50.208;9.182;2022-10-26T08:50:54;99947.09;;;14.70;100.00
12594;BME280;6362;50.208;9.182;2022-10-26T08:56:10;99954.56;;;15.09;100.00
12594;BME280;6362;50.208;9.182;2022-10-26T08:58:42;99956.13;;;15.28;100.00
12594;BME280;6362;50.208;9.182;2022-10-26T09:01:11;99956.91;;;15.41;100.00
12594;BME280;6362;50.208;9.182;2022-10-26T09:03:36;99950.75;;;15.57;100.00
12594;BME280;6362;50.208;9.182;2022-10-26T09:06:17;99952.34;;;15.77;100.00
12594;BME280;6362;50.208;9.182;2022-10-26T09:09:07;99956.38;;;16.02;100.00
12594;BME280;6362;50.208;9.182;2022-10-26T09:14:36;99938.97;;;16.26;100.00
12594;BME280;6362;50.208;9.182;2022-10-26T09:20:14;99937.06;;;16.39;100.00
12594;BME280;6362;50.208;9.182;2022-10-26T09:25:23;99949.94;;;16.39;100.00
12594;BME280;6362;50.208;9.182;2022-10-26T09:27:55;99955.06;;;16.42;100.00
12594;BME280;6362;50.208;9.182;2022-10-26T09:30:22;99957.66;;;16.39;100.00
12594;BME280;6362;50.208;9.182;2022-10-26T09:33:04;99962.94;;;16.30;100.00
12594;BME280;6362;50.208;9.182;2022-10-26T09:35:45;99960.44;;;16.22;100.00
12594;BME280;6362;50.208;9.182;2022-10-26T09:38:35;99969.06;;;16.16;100.00
12594;BME280;6362;50.208;9.182;2022-10-26T09:41:07;99970.84;;;16.13;100.00
12594;BME280;6362;50.208;9.182;2022-10-26T09:46:01;99975.00;;;16.26;100.00
12594;BME280;6362;50.208;9.182;2022-10-26T09:48:39;99980.88;;;16.36;100.00
12594;BME280;6362;50.208;9.182;2022-10-26T09:51:07;99978.97;;;16.52;100.00
12594;BME280;6362;50.208;9.182;2022-10-26T09:53:33;99984.00;;;16.64;100.00
12594;BME280;6362;50.208;9.182;2022-10-26T09:56:02;99989.66;;;16.92;100.00
12594;BME280;6362;50.208;9.182;2022-10-26T09:58:33;100004.72;;;17.20;100.00
12594;BME280;6362;50.208;9.182;2022-10-26T10:01:00;100009.09;;;17.13;100.00
12594;BME280;6362;50.208;9.182;2022-10-26T10:03:26;100015.22;;;17.06;100.00
12594;BME280;6362;50.208;9.182;2022-10-26T10:05:53;100021.22;;;17.06;100.00
12594;BME280;6362;50.208;9.182;2022-10-26T10:08:23;100021.41;;;16.93;100.00
12594;BME280;6362;50.208;9.182;2022-10-26T10:13:22;100018.97;;;16.83;100.00
12594;BME280;6362;50.208;9.182;2022-10-26T10:16:04;100028.09;;;17.09;100.00
12594;BME280;6362;50.208;9.182;2022-10-26T10:18:31;100028.47;;;17.40;100.00
12594;BME280;6362;50.208;9.182;2022-10-26T10:20:58;100029.59;;;17.81;100.00
12594;BME280;6362;50.208;9.182;2022-10-26T10:23:25;100030.22;;;18.87;100.00
12594;BME280;6362;50.208;9.182;2022-10-26T10:26:08;100031.28;;;19.18;100.00
12594;BME280;6362;50.208;9.182;2022-10-26T10:28:37;100036.75;;;19.04;100.00
12594;BME280;6362;50.208;9.182;2022-10-26T10:31:17;100034.09;;;19.07;100.00
12594;BME280;6362;50.208;9.182;2022-10-26T10:33:42;100029.06;;;19.01;100.00
12594;BME280;6362;50.208;9.182;2022-10-26T10:36:23;100037.75;;;18.98;100.00
12594;BME280;6362;50.208;9.182;2022-10-26T10:38:51;100042.16;;;18.93;100.00
12594;BME280;6362;50.208;9.182;2022-10-26T10:41:31;100038.72;;;18.92;100.00
12594;BME280;6362;50.208;9.182;2022-10-26T10:44:07;100041.03;;;19.05;100.00
12594;BME280;6362;50.208;9.182;2022-10-26T10:46:40;100039.22;;;19.10;100.00
12594;BME280;6362;50.208;9.182;2022-10-26T10:49:17;100042.44;;;19.20;100.00
12594;BME280;6362;50.208;9.182;2022-10-26T10:51:44;100029.94;;;19.00;100.00
12594;BME280;6362;50.208;9.182;2022-10-26T10:54:30;100035.41;;;18.86;100.00
12594;BME280;6362;50.208;9.182;2022-10-26T11:00:03;100031.66;;;18.57;100.00
12594;BME280;6362;50.208;9.182;2022-10-26T11:08:21;100043.84;;;18.50;100.00
12594;BME280;6362;50.208;9.182;2022-10-26T11:10:56;100041.25;;;18.50;100.00
12594;BME280;6362;50.208;9.182;2022-10-26T11:13:28;100046.13;;;18.66;100.00
12594;BME280;6362;50.208;9.182;2022-10-26T11:16:00;100051.00;;;18.83;100.00
12594;BME280;6362;50.208;9.182;2022-10-26T11:21:01;100057.16;;;18.76;100.00
12594;BME280;6362;50.208;9.182;2022-10-26T11:23:42;100067.59;;;18.69;100.00
12594;BME280;6362;50.208;9.182;2022-10-26T11:26:18;100062.38;;;18.71;100.00
12594;BME280;6362;50.208;9.182;2022-10-26T11:31:39;100066.91;;;19.81;100.00
12594;BME280;6362;50.208;9.182;2022-10-26T11:36:46;100067.38;;;21.53;93.58
12594;BME280;6362;50.208;9.182;2022-10-26T11:39:20;100056.84;;;22.36;85.96
12594;BME280;6362;50.208;9.182;2022-10-26T11:44:47;100056.78;;;24.58;70.04
12594;BME280;6362;50.208;9.182;2022-10-26T11:55:16;100062.13;;;26.54;59.16
12594;BME280;6362;50.208;9.182;2022-10-26T11:57:43;100071.53;;;26.41;58.96
12594;BME280;6362;50.208;9.182;2022-10-26T12:00:16;100072.53;;;27.05;57.88
12594;BME280;6362;50.208;9.182;2022-10-26T12:02:46;100086.47;;;27.22;53.45
12594;BME280;6362;50.208;9.182;2022-10-26T12:08:04;100083.13;;;25.66;60.22
12594;BME280;6362;50.208;9.182;2022-10-26T12:10:32;100085.09;;;23.62;69.66
12594;BME280;6362;50.208;9.182;2022-10-26T12:18:31;100095.25;;;21.47;87.99
12594;BME280;6362;50.208;9.182;2022-10-26T12:21:00;100096.06;;;21.49;90.28
12594;BME280;6362;50.208;9.182;2022-10-26T12:23:28;100099.81;;;21.67;91.31
12594;BME280;6362;50.208;9.182;2022-10-26T12:34:21;100090.41;;;22.68;82.96
12594;BME280;6362;50.208;9.182;2022-10-26T12:39:37;100103.69;;;21.53;91.67
12594;BME280;6362;50.208;9.182;2022-10-26T12:44:38;100103.72;;;20.63;99.30
12594;BME280;6362;50.208;9.182;2022-10-26T12:47:06;100099.41;;;20.29;100.00
12594;BME280;6362;50.208;9.182;2022-10-26T13:09:14;100105.91;;;19.34;100.00
12594;BME280;6362;50.208;9.182;2022-10-26T13:11:50;100111.94;;;19.35;100.00
12594;BME280;6362;50.208;9.182;2022-10-26T13:14:23;100104.19;;;19.35;100.00
12594;BME280;6362;50.208;9.182;2022-10-26T13:16:50;100112.00;;;19.32;100.00
12594;BME280;6362;50.208;9.182;2022-10-26T13:21:57;100114.19;;;19.10;100.00
12594;BME280;6362;50.208;9.182;2022-10-26T13:24:24;100113.34;;;19.09;100.00
12594;BME280;6362;50.208;9.182;2022-10-26T13:27:26;100113.34;;;19.09;100.00
12594;BME280;6362;50.208;9.182;2022-10-26T13:32:38;100117.63;;;19.10;100.00
12594;BME280;6362;50.208;9.182;2022-10-26T13:35:05;100113.25;;;19.14;100.00
12594;BME280;6362;50.208;9.182;2022-10-26T13:37:36;100122.78;;;19.12;100.00
12594;BME280;6362;50.208;9.182;2022-10-26T13:40:05;100124.47;;;19.13;100.00
12594;BME280;6362;50.208;9.182;2022-10-26T13:42:42;100130.66;;;19.06;100.00
12594;BME280;6362;50.208;9.182;2022-10-26T13:45:13;100137.59;;;19.04;100.00
12594;BME280;6362;50.208;9.182;2022-10-26T13:50:16;100140.53;;;18.85;100.00
12594;BME280;6362;50.208;9.182;2022-10-26T13:52:46;100143.25;;;18.76;100.00
12594;BME280;6362;50.208;9.182;2022-10-26T13:55:23;100138.06;;;18.79;100.00
12594;BME280;6362;50.208;9.182;2022-10-26T14:00:28;100140.75;;;18.71;100.00
12594;BME280;6362;50.208;9.182;2022-10-26T14:02:53;100137.28;;;18.72;100.00
12594;BME280;6362;50.208;9.182;2022-10-26T14:05:20;100137.97;;;18.84;100.00
12594;BME280;6362;50.208;9.182;2022-10-26T14:07:57;100139.31;;;19.03;100.00
12594;BME280;6362;50.208;9.182;2022-10-26T14:10:33;100129.25;;;19.31;100.00
12594;BME280;6362;50.208;9.182;2022-10-26T14:13:00;100140.09;;;19.88;100.00
12594;BME280;6362;50.208;9.182;2022-10-26T14:15:31;100143.94;;;20.76;100.00
12594;BME280;6362;50.208;9.182;2022-10-26T14:17:59;100151.78;;;22.47;100.00
12594;BME280;6362;50.208;9.182;2022-10-26T14:20:27;100147.97;;;24.19;87.15
12594;BME280;6362;50.208;9.182;2022-10-26T14:22:54;100143.50;;;25.60;74.15
12594;BME280;6362;50.208;9.182;2022-10-26T14:25:27;100156.13;;;26.75;66.79
12594;BME280;6362;50.208;9.182;2022-10-26T14:27:54;100148.53;;;27.19;61.30
12594;BME280;6362;50.208;9.182;2022-10-26T14:30:30;100139.78;;;27.84;58.48
12594;BME280;6362;50.208;9.182;2022-10-26T14:32:56;100149.22;;;28.02;55.48
12594;BME280;6362;50.208;9.182;2022-10-26T14:35:28;100146.53;;;28.18;55.52
12594;BME280;6362;50.208;9.182;2022-10-26T14:38:01;100155.19;;;28.65;53.26
12594;BME280;6362;50.208;9.182;2022-10-26T14:40:30;100151.88;;;29.04;51.73
12594;BME280;6362;50.208;9.182;2022-10-26T14:43:00;100157.81;;;28.94;51.74
12594;BME280;6362;50.208;9.182;2022-10-26T14:47:51;100161.00;;;26.65;59.95
12594;BME280;6362;50.208;9.182;2022-10-26T14:50:19;100168.06;;;25.55;65.04
12594;BME280;6362;50.208;9.182;2022-10-26T14:52:50;100160.41;;;24.12;74.68
12594;BME280;6362;50.208;9.182;2022-10-26T14:55:17;100162.34;;;23.39;79.92
12594;BME280;6362;50.208;9.182;2022-10-26T14:57:45;100165.88;;;22.64;86.74
12594;BME280;6362;50.208;9.182;2022-10-26T15:02:37;100174.63;;;21.54;98.15
12594;BME280;6362;50.208;9.182;2022-10-26T15:07:41;100176.91;;;20.71;100.00
12594;BME280;6362;50.208;9.182;2022-10-26T15:15:33;100177.44;;;19.78;100.00
12594;BME280;6362;50.208;9.182;2022-10-26T15:17:59;100181.28;;;19.58;100.00
12594;BME280;6362;50.208;9.182;2022-10-26T15:20:26;100185.81;;;19.47;100.00
12594;BME280;6362;50.208;9.182;2022-10-26T15:22:55;100189.53;;;19.35;100.00
12594;BME280;6362;50.208;9.182;2022-10-26T15:25:23;100194.19;;;19.16;100.00
12594;BME280;6362;50.208;9.182;2022-10-26T15:27:49;100198.91;;;18.96;100.00
12594;BME280;6362;50.208;9.182;2022-10-26T15:30:20;100199.91;;;18.88;100.00
12594;BME280;6362;50.208;9.182;2022-10-26T15:32:46;100205.28;;;18.76;100.00
12594;BME280;6362;50.208;9.182;2022-10-26T15:37:49;100210.88;;;18.51;100.00
12594;BME280;6362;50.208;9.182;2022-10-26T15:40:16;100210.19;;;18.42;100.00
12594;BME280;6362;50.208;9.182;2022-10-26T15:42:42;100208.59;;;18.31;100.00
12594;BME280;6362;50.208;9.182;2022-10-26T15:45:19;100202.75;;;18.22;100.00
12594;BME280;6362;50.208;9.182;2022-10-26T15:47:45;100209.75;;;18.14;100.00
12594;BME280;6362;50.208;9.182;2022-10-26T15:50:15;100217.66;;;18.03;100.00
12594;BME280;6362;50.208;9.182;2022-10-26T15:52:41;100218.69;;;17.89;100.00
12594;BME280;6362;50.208;9.182;2022-10-26T15:55:08;100221.50;;;17.71;100.00
12594;BME280;6362;50.208;9.182;2022-10-26T15:57:34;100221.63;;;17.62;100.00
12594;BME280;6362;50.208;9.182;2022-10-26T16:00:00;100226.13;;;17.44;100.00